createdAt,value
2016-05-26T00:00:32.746Z,1004.01
2016-05-26T00:01:32.764Z,1003.98
2016-05-26T00:02:32.782Z,1003.96
2016-05-26T00:03:32.816Z,1003.96
2016-05-26T00:04:32.835Z,1004.01
2016-05-26T00:05:32.853Z,1003.96
2016-05-26T00:06:32.887Z,1004.01
2016-05-26T00:07:32.905Z,1004.03
2016-05-26T00:08:32.923Z,1003.99
2016-05-26T00:09:32.942Z,1004
2016-05-26T00:10:32.960Z,1004.03
2016-05-26T00:11:32.994Z,1004.04
2016-05-26T00:12:33.011Z,1004.04
2016-05-26T00:13:33.030Z,1004.02
2016-05-26T00:14:33.065Z,1004.05
2016-05-26T00:15:33.083Z,1004
2016-05-26T00:16:33.102Z,1003.97
2016-05-26T00:17:33.494Z,1003.98
2016-05-26T00:18:33.153Z,1003.97
2016-05-26T00:19:33.172Z,1004
2016-05-26T00:20:33.206Z,1003.98
2016-05-26T00:21:33.224Z,1003.99
2016-05-26T00:22:33.258Z,1004.01
2016-05-26T00:23:33.277Z,1003.95
2016-05-26T00:24:33.294Z,1003.92
2016-05-26T00:25:33.391Z,1003.92
2016-05-26T00:26:33.346Z,1003.92
2016-05-26T00:27:33.365Z,1003.91
2016-05-26T00:28:33.384Z,1003.93
2016-05-26T00:29:33.417Z,1003.93
2016-05-26T00:30:33.435Z,1003.93
2016-05-26T00:31:33.454Z,1003.91
2016-05-26T00:32:33.487Z,1003.92
2016-05-26T00:33:33.506Z,1003.9
2016-05-26T00:34:33.525Z,1003.93
2016-05-26T00:35:33.559Z,1003.93
2016-05-26T00:36:33.577Z,1003.95
2016-05-26T00:37:33.596Z,1003.93
2016-05-26T00:38:33.629Z,1003.92
2016-05-26T00:39:33.648Z,1003.92
2016-05-26T00:40:33.666Z,1003.93
2016-05-26T00:41:33.684Z,1003.91
2016-05-26T00:42:33.718Z,1003.91
2016-05-26T00:43:33.736Z,1003.9
2016-05-26T00:44:33.755Z,1003.87
2016-05-26T00:45:33.788Z,1003.86
2016-05-26T00:46:33.807Z,1003.87
2016-05-26T00:47:33.825Z,1003.84
2016-05-26T00:48:33.859Z,1003.85
2016-05-26T00:49:33.877Z,1003.86
2016-05-26T00:50:33.896Z,1003.86
2016-05-26T00:51:33.914Z,1003.86
2016-05-26T00:52:33.963Z,1003.83
2016-05-26T00:53:33.966Z,1003.87
2016-05-26T00:54:33.985Z,1003.85
2016-05-26T00:55:34.018Z,1003.88
2016-05-26T00:56:34.037Z,1003.86
2016-05-26T00:57:34.055Z,1003.86
2016-05-26T00:58:34.074Z,1003.84
2016-05-26T00:59:34.107Z,1003.82
2016-05-26T01:00:34.126Z,1003.79
2016-05-26T01:01:34.144Z,1003.82
2016-05-26T01:02:34.209Z,1003.82
2016-05-26T01:03:34.196Z,1003.85
2016-05-26T01:04:34.215Z,1003.85
2016-05-26T01:05:34.249Z,1003.84
2016-05-26T01:06:34.267Z,1003.81
2016-05-26T01:07:34.285Z,1003.8
2016-05-26T01:08:34.319Z,1003.79
2016-05-26T01:09:34.337Z,1003.81
2016-05-26T01:10:34.356Z,1003.83
2016-05-26T01:11:34.389Z,1003.79
2016-05-26T01:12:34.409Z,1003.81
2016-05-26T01:13:34.442Z,1003.81
2016-05-26T01:14:34.460Z,1003.77
2016-05-26T01:15:34.478Z,1003.8
2016-05-26T01:16:34.497Z,1003.76
2016-05-26T01:17:34.906Z,1003.76
2016-05-26T01:18:34.549Z,1003.73
2016-05-26T01:19:34.567Z,1003.78
2016-05-26T01:20:34.586Z,1003.75
2016-05-26T01:21:34.620Z,1003.76
2016-05-26T01:22:34.638Z,1003.74
2016-05-26T01:23:34.656Z,1003.71
2016-05-26T01:24:34.675Z,1003.71
2016-05-26T01:25:34.708Z,1003.69
2016-05-26T01:26:34.727Z,1003.71
2016-05-26T01:27:34.760Z,1003.69
2016-05-26T01:28:34.779Z,1003.7
2016-05-26T01:29:34.798Z,1003.69
2016-05-26T01:30:34.831Z,1003.73
2016-05-26T01:31:34.850Z,1003.72
2016-05-26T01:32:34.868Z,1003.72
2016-05-26T01:33:34.887Z,1003.69
2016-05-26T01:34:34.920Z,1003.74
2016-05-26T01:35:34.939Z,1003.74
2016-05-26T01:36:34.957Z,1003.72
2016-05-26T01:37:34.991Z,1003.7
2016-05-26T01:38:35.010Z,1003.68
2016-05-26T01:39:35.028Z,1003.68
2016-05-26T01:40:35.046Z,1003.69
2016-05-26T01:41:35.080Z,1003.7
2016-05-26T01:42:35.098Z,1003.68
2016-05-26T01:43:35.117Z,1003.68
2016-05-26T01:44:35.150Z,1003.68
2016-05-26T01:45:35.169Z,1003.68
2016-05-26T01:46:35.186Z,1003.71
2016-05-26T01:47:35.252Z,1003.69
2016-05-26T01:48:35.239Z,1003.7
2016-05-26T01:49:35.257Z,1003.68
2016-05-26T01:50:35.275Z,1003.68
2016-05-26T01:51:35.310Z,1003.65
2016-05-26T01:52:35.328Z,1003.66
2016-05-26T01:53:35.347Z,1003.61
2016-05-26T01:54:35.380Z,1003.62
2016-05-26T01:55:35.399Z,1003.59
2016-05-26T01:56:35.433Z,1003.6
2016-05-26T01:57:35.436Z,1003.61
2016-05-26T01:58:35.469Z,1003.6
2016-05-26T01:59:35.488Z,1003.59
2016-05-26T02:00:35.506Z,1003.59
2016-05-26T02:01:35.540Z,1003.56
2016-05-26T02:02:35.558Z,1003.62
2016-05-26T02:03:35.576Z,1003.59
2016-05-26T02:04:35.610Z,1003.61
2016-05-26T02:05:35.628Z,1003.59
2016-05-26T02:06:35.648Z,1003.6
2016-05-26T02:07:35.665Z,1003.62
2016-05-26T02:08:35.699Z,1003.62
2016-05-26T02:09:35.717Z,1003.64
2016-05-26T02:10:35.736Z,1003.67
2016-05-26T02:11:35.770Z,1003.71
2016-05-26T02:12:35.788Z,1003.68
2016-05-26T02:13:35.807Z,1003.67
2016-05-26T02:14:35.840Z,1003.7
2016-05-26T02:15:35.858Z,1003.71
2016-05-26T02:16:35.877Z,1003.69
2016-05-26T02:17:36.161Z,1003.72
2016-05-26T02:18:35.930Z,1003.69
2016-05-26T02:19:35.948Z,1003.65
2016-05-26T02:20:35.966Z,1003.7
2016-05-26T02:21:36.000Z,1003.72
2016-05-26T02:22:36.019Z,1003.73
2016-05-26T02:23:36.036Z,1003.75
2016-05-26T02:24:36.055Z,1003.71
2016-05-26T02:25:36.088Z,1003.71
2016-05-26T02:26:36.107Z,1003.74
2016-05-26T02:27:36.125Z,1003.73
2016-05-26T02:28:36.159Z,1003.74
2016-05-26T02:29:36.177Z,1003.75
2016-05-26T02:30:36.196Z,1003.76
2016-05-26T02:31:36.229Z,1003.75
2016-05-26T02:32:36.248Z,1003.76
2016-05-26T02:33:36.266Z,1003.82
2016-05-26T02:34:36.316Z,1003.8
2016-05-26T02:35:36.319Z,1003.8
2016-05-26T02:36:36.337Z,1003.79
2016-05-26T02:37:36.356Z,1003.78
2016-05-26T02:38:36.390Z,1003.79
2016-05-26T02:39:36.407Z,1003.8
2016-05-26T02:40:36.426Z,1003.78
2016-05-26T02:41:36.460Z,1003.81
2016-05-26T02:42:36.478Z,1003.8
2016-05-26T02:43:36.497Z,1003.81
2016-05-26T02:44:36.515Z,1003.79
2016-05-26T02:45:36.548Z,1003.78
2016-05-26T02:46:36.567Z,1003.81
2016-05-26T02:47:36.585Z,1003.78
2016-05-26T02:48:36.681Z,1003.8
2016-05-26T02:49:36.684Z,1003.84
2016-05-26T02:50:36.655Z,1003.82
2016-05-26T02:51:36.689Z,1003.81
2016-05-26T02:52:36.755Z,1003.82
2016-05-26T02:53:36.727Z,1003.77
2016-05-26T02:54:36.761Z,1003.8
2016-05-26T02:55:36.780Z,1003.83
2016-05-26T02:56:36.796Z,1003.79
2016-05-26T02:57:36.816Z,1003.79
2016-05-26T02:58:36.850Z,1003.81
2016-05-26T02:59:36.868Z,1003.79
2016-05-26T03:00:36.886Z,1003.8
2016-05-26T03:01:36.920Z,1003.79
2016-05-26T03:02:37.423Z,1003.78
2016-05-26T03:03:36.972Z,1003.76
2016-05-26T03:04:36.990Z,1003.82
2016-05-26T03:05:37.009Z,1003.77
2016-05-26T03:06:37.027Z,1003.77
2016-05-26T03:07:37.045Z,1003.75
2016-05-26T03:08:37.080Z,1003.8
2016-05-26T03:09:37.098Z,1003.8
2016-05-26T03:10:37.115Z,1003.81
2016-05-26T03:11:37.150Z,1003.84
2016-05-26T03:12:37.168Z,1003.86
2016-05-26T03:13:37.187Z,1003.86
2016-05-26T03:14:37.206Z,1003.85
2016-05-26T03:15:37.239Z,1003.89
2016-05-26T03:16:37.257Z,1003.87
2016-05-26T03:17:37.510Z,1003.86
2016-05-26T03:18:37.309Z,1003.89
2016-05-26T03:19:37.328Z,1003.89
2016-05-26T03:20:37.346Z,1003.91
2016-05-26T03:21:37.364Z,1003.91
2016-05-26T03:22:37.398Z,1003.9
2016-05-26T03:23:37.416Z,1003.95
2016-05-26T03:24:37.435Z,1003.93
2016-05-26T03:25:37.469Z,1003.91
2016-05-26T03:26:37.487Z,1003.94
2016-05-26T03:27:37.505Z,1003.92
2016-05-26T03:28:37.539Z,1003.94
2016-05-26T03:29:37.558Z,1003.98
2016-05-26T03:30:37.591Z,1003.97
2016-05-26T03:31:37.610Z,1003.96
2016-05-26T03:32:37.629Z,1003.94
2016-05-26T03:33:37.647Z,1003.93
2016-05-26T03:34:37.665Z,1003.97
2016-05-26T03:35:37.698Z,1003.97
2016-05-26T03:36:37.718Z,1003.97
2016-05-26T03:37:37.735Z,1003.94
2016-05-26T03:38:37.770Z,1003.99
2016-05-26T03:39:37.787Z,1003.96
2016-05-26T03:40:37.806Z,1003.97
2016-05-26T03:41:37.840Z,1003.96
2016-05-26T03:42:37.858Z,1003.94
2016-05-26T03:43:37.876Z,1003.96
2016-05-26T03:44:37.895Z,1003.96
2016-05-26T03:45:37.928Z,1003.97
2016-05-26T03:46:37.947Z,1003.93
2016-05-26T03:47:37.965Z,1003.94
2016-05-26T03:48:38.000Z,1003.98
2016-05-26T03:49:38.018Z,1003.98
2016-05-26T03:50:38.036Z,1003.95
2016-05-26T03:51:38.070Z,1003.98
2016-05-26T03:52:38.088Z,1003.96
2016-05-26T03:53:38.106Z,1004.02
2016-05-26T03:54:38.125Z,1003.97
2016-05-26T03:55:38.159Z,1003.98
2016-05-26T03:56:38.177Z,1003.99
2016-05-26T03:57:38.196Z,1004
2016-05-26T03:58:38.213Z,1003.98
2016-05-26T03:59:38.247Z,1003.99
2016-05-26T04:00:38.266Z,1003.98
2016-05-26T04:01:38.285Z,1003.98
2016-05-26T04:02:38.318Z,1004.02
2016-05-26T04:03:38.337Z,1004.03
2016-05-26T04:04:38.355Z,1004.04
2016-05-26T04:05:38.389Z,1004.04
2016-05-26T04:06:38.407Z,1004.06
2016-05-26T04:07:38.426Z,1004.06
2016-05-26T04:08:38.444Z,1004.01
2016-05-26T04:09:38.478Z,1004.02
2016-05-26T04:10:38.496Z,1004.01
2016-05-26T04:11:38.529Z,1004.05
2016-05-26T04:12:38.548Z,1004.08
2016-05-26T04:13:38.567Z,1004.07
2016-05-26T04:14:38.585Z,1004.04
2016-05-26T04:15:38.619Z,1004.03
2016-05-26T04:16:38.637Z,1004.05
2016-05-26T04:17:39.327Z,1004.06
2016-05-26T04:18:38.690Z,1004.1
2016-05-26T04:19:38.709Z,1004.12
2016-05-26T04:20:38.725Z,1004.12
2016-05-26T04:21:38.760Z,1004.09
2016-05-26T04:22:38.778Z,1004.12
2016-05-26T04:23:38.797Z,1004.12
2016-05-26T04:24:38.815Z,1004.15
2016-05-26T04:25:38.849Z,1004.14
2016-05-26T04:26:38.867Z,1004.15
2016-05-26T04:27:38.886Z,1004.15
2016-05-26T04:28:38.919Z,1004.12
2016-05-26T04:29:38.938Z,1004.12
2016-05-26T04:30:38.956Z,1004.13
2016-05-26T04:31:38.974Z,1004.13
2016-05-26T04:32:39.008Z,1004.11
2016-05-26T04:33:39.027Z,1004.14
2016-05-26T04:34:39.045Z,1004.15
2016-05-26T04:35:39.063Z,1004.16
2016-05-26T04:36:39.096Z,1004.12
2016-05-26T04:37:39.116Z,1004.15
2016-05-26T04:38:39.135Z,1004.16
2016-05-26T04:39:39.168Z,1004.19
2016-05-26T04:40:39.187Z,1004.24
2016-05-26T04:41:39.204Z,1004.23
2016-05-26T04:42:39.238Z,1004.25
2016-05-26T04:43:39.257Z,1004.17
2016-05-26T04:44:39.275Z,1004.23
2016-05-26T04:45:39.309Z,1004.23
2016-05-26T04:46:39.328Z,1004.23
2016-05-26T04:47:39.345Z,1004.24
2016-05-26T04:48:39.379Z,1004.22
2016-05-26T04:49:39.398Z,1004.28
2016-05-26T04:50:39.416Z,1004.25
2016-05-26T04:51:39.434Z,1004.31
2016-05-26T04:52:39.469Z,1004.27
2016-05-26T04:53:39.487Z,1004.3
2016-05-26T04:54:39.521Z,1004.32
2016-05-26T04:55:39.538Z,1004.35
2016-05-26T04:56:39.558Z,1004.34
2016-05-26T04:57:39.576Z,1004.33
2016-05-26T04:58:39.610Z,1004.31
2016-05-26T04:59:39.628Z,1004.29
2016-05-26T05:00:39.646Z,1004.3
2016-05-26T05:01:39.680Z,1004.27
2016-05-26T05:02:39.699Z,1004.29
2016-05-26T05:03:39.716Z,1004.26
2016-05-26T05:04:39.751Z,1004.25
2016-05-26T05:05:39.768Z,1004.31
2016-05-26T05:06:39.787Z,1004.29
2016-05-26T05:07:39.806Z,1004.31
2016-05-26T05:08:39.840Z,1004.27
2016-05-26T05:09:39.857Z,1004.32
2016-05-26T05:10:39.892Z,1004.3
2016-05-26T05:11:39.910Z,1004.33
2016-05-26T05:12:39.929Z,1004.34
2016-05-26T05:13:39.963Z,1004.38
2016-05-26T05:14:39.981Z,1004.4
2016-05-26T05:15:39.999Z,1004.39
2016-05-26T05:16:40.018Z,1004.39
2016-05-26T05:17:40.254Z,1004.45
2016-05-26T05:18:40.069Z,1004.45
2016-05-26T05:19:40.103Z,1004.46
2016-05-26T05:20:40.106Z,1004.47
2016-05-26T05:21:40.140Z,1004.47
2016-05-26T05:22:40.158Z,1004.46
2016-05-26T05:23:40.193Z,1004.44
2016-05-26T05:24:40.211Z,1004.48
2016-05-26T05:25:40.228Z,1004.49
2016-05-26T05:26:40.247Z,1004.51
2016-05-26T05:27:40.281Z,1004.49
2016-05-26T05:28:40.300Z,1004.52
2016-05-26T05:29:40.319Z,1004.52
2016-05-26T05:30:40.352Z,1004.46
2016-05-26T05:31:40.370Z,1004.47
2016-05-26T05:32:40.905Z,1004.52
2016-05-26T05:33:40.422Z,1004.51
2016-05-26T05:34:40.441Z,1004.52
2016-05-26T05:35:40.460Z,1004.52
2016-05-26T05:36:40.493Z,1004.56
2016-05-26T05:37:40.511Z,1004.53
2016-05-26T05:38:40.529Z,1004.54
2016-05-26T05:39:40.563Z,1004.54
2016-05-26T05:40:40.582Z,1004.58
2016-05-26T05:41:40.601Z,1004.56
2016-05-26T05:42:40.634Z,1004.58
2016-05-26T05:43:40.652Z,1004.66
2016-05-26T05:44:40.670Z,1004.6
2016-05-26T05:45:40.704Z,1004.6
2016-05-26T05:46:40.723Z,1004.66
2016-05-26T05:47:40.742Z,1004.64
2016-05-26T05:48:41.276Z,1004.65
2016-05-26T05:49:40.793Z,1004.66
2016-05-26T05:50:40.812Z,1004.67
2016-05-26T05:51:40.846Z,1004.68
2016-05-26T05:52:40.864Z,1004.69
2016-05-26T05:53:40.882Z,1004.68
2016-05-26T05:54:40.916Z,1004.69
2016-05-26T05:55:40.950Z,1004.73
2016-05-26T05:56:40.953Z,1004.72
2016-05-26T05:57:40.986Z,1004.66
2016-05-26T05:58:41.005Z,1004.68
2016-05-26T05:59:41.039Z,1004.63
2016-05-26T06:00:41.057Z,1004.71
2016-05-26T06:01:41.076Z,1004.68
2016-05-26T06:02:41.094Z,1004.7
2016-05-26T06:03:41.128Z,1004.72
2016-05-26T06:04:41.147Z,1004.69
2016-05-26T06:05:41.165Z,1004.75
2016-05-26T06:06:41.199Z,1004.74
2016-05-26T06:07:41.216Z,1004.75
2016-05-26T06:08:41.251Z,1004.72
2016-05-26T06:09:41.269Z,1004.74
2016-05-26T06:10:41.288Z,1004.75
2016-05-26T06:11:41.321Z,1004.74
2016-05-26T06:12:41.340Z,1004.72
2016-05-26T06:13:41.358Z,1004.77
2016-05-26T06:14:41.392Z,1004.75
2016-05-26T06:15:41.426Z,1004.79
2016-05-26T06:16:41.444Z,1004.78
2016-05-26T06:17:41.634Z,1004.8
2016-05-26T06:18:41.482Z,1004.81
2016-05-26T06:19:41.515Z,1004.74
2016-05-26T06:20:41.534Z,1004.76
2016-05-26T06:21:41.551Z,1004.77
2016-05-26T06:22:41.586Z,1004.78
2016-05-26T06:23:41.604Z,1004.79
2016-05-26T06:24:41.622Z,1004.8
2016-05-26T06:25:41.656Z,1004.83
2016-05-26T06:26:41.675Z,1004.82
2016-05-26T06:27:41.708Z,1004.81
2016-05-26T06:28:41.727Z,1004.81
2016-05-26T06:29:41.761Z,1004.84
2016-05-26T06:30:41.778Z,1004.86
2016-05-26T06:31:41.797Z,1004.82
2016-05-26T06:32:41.816Z,1004.84
2016-05-26T06:33:41.849Z,1004.82
2016-05-26T06:34:41.868Z,1004.86
2016-05-26T06:35:41.885Z,1004.88
2016-05-26T06:36:41.919Z,1004.88
2016-05-26T06:37:41.939Z,1004.89
2016-05-26T06:38:41.957Z,1004.87
2016-05-26T06:39:41.991Z,1004.88
2016-05-26T06:40:42.009Z,1004.89
2016-05-26T06:41:42.043Z,1004.87
2016-05-26T06:42:42.061Z,1004.86
2016-05-26T06:43:42.080Z,1004.89
2016-05-26T06:44:42.113Z,1004.9
2016-05-26T06:45:42.132Z,1004.88
2016-05-26T06:46:42.151Z,1004.89
2016-05-26T06:47:42.481Z,1004.9
2016-05-26T06:48:42.202Z,1004.91
2016-05-26T06:49:42.236Z,1004.88
2016-05-26T06:50:42.254Z,1004.94
2016-05-26T06:51:42.382Z,1004.92
2016-05-26T06:52:42.401Z,1004.94
2016-05-26T06:53:42.419Z,1004.97
2016-05-26T06:54:42.421Z,1004.96
2016-05-26T06:55:42.471Z,1005
2016-05-26T06:56:42.473Z,1005
2016-05-26T06:57:42.476Z,1005.01
2016-05-26T06:58:42.479Z,1005.03
2016-05-26T06:59:42.497Z,1005.03
2016-05-26T07:00:42.500Z,1005.03
2016-05-26T07:01:42.519Z,1005.02
2016-05-26T07:02:42.569Z,1004.95
2016-05-26T07:03:42.571Z,1005
2016-05-26T07:04:42.589Z,1004.96
2016-05-26T07:05:42.623Z,1004.95
2016-05-26T07:06:42.641Z,1004.92
2016-05-26T07:07:42.675Z,1004.92
2016-05-26T07:08:42.755Z,1004.9
2016-05-26T07:09:42.712Z,1004.94
2016-05-26T07:10:42.746Z,1004.93
2016-05-26T07:11:42.763Z,1004.92
2016-05-26T07:12:42.798Z,1004.94
2016-05-26T07:13:42.816Z,1004.91
2016-05-26T07:14:42.835Z,1004.89
2016-05-26T07:15:42.868Z,1004.86
2016-05-26T07:16:42.887Z,1004.94
2016-05-26T07:17:42.920Z,1004.89
2016-05-26T07:18:43.143Z,1004.91
2016-05-26T07:19:45.958Z,1004.93
2016-05-26T07:20:42.992Z,1004.9
2016-05-26T07:21:43.010Z,1004.93
2016-05-26T07:22:43.043Z,1004.9
2016-05-26T07:23:43.062Z,1004.89
2016-05-26T07:24:43.112Z,1004.89
2016-05-26T07:25:43.114Z,1004.92
2016-05-26T07:26:43.133Z,1004.89
2016-05-26T07:27:43.167Z,1004.92
2016-05-26T07:28:43.184Z,1004.9
2016-05-26T07:29:43.219Z,1004.88
2016-05-26T07:30:43.236Z,1004.88
2016-05-26T07:31:43.271Z,1004.91
2016-05-26T07:32:43.289Z,1004.86
2016-05-26T07:33:43.323Z,1004.9
2016-05-26T07:34:43.341Z,1004.85
2016-05-26T07:35:43.360Z,1004.9
2016-05-26T07:36:43.393Z,1004.85
2016-05-26T07:37:43.427Z,1004.87
2016-05-26T07:38:43.486Z,1004.82
2016-05-26T07:39:43.528Z,1004.89
2016-05-26T07:40:43.572Z,1004.86
2016-05-26T07:41:43.630Z,1004.86
2016-05-26T07:42:43.665Z,1004.85
2016-05-26T07:43:43.708Z,1004.83
2016-05-26T07:44:43.735Z,1004.82
2016-05-26T07:45:43.777Z,1004.86
2016-05-26T07:46:43.805Z,1004.87
2016-05-26T07:47:43.954Z,1004.81
2016-05-26T07:48:43.866Z,1004.83
2016-05-26T07:49:43.888Z,1004.81
2016-05-26T07:50:43.925Z,1004.81
2016-05-26T07:51:43.947Z,1004.82
2016-05-26T07:52:43.983Z,1004.83
2016-05-26T07:53:44.003Z,1004.82
2016-05-26T07:54:44.037Z,1004.8
2016-05-26T07:55:44.058Z,1004.82
2016-05-26T07:56:44.093Z,1004.82
2016-05-26T07:57:44.112Z,1004.84
2016-05-26T07:58:44.145Z,1004.83
2016-05-26T07:59:44.165Z,1004.87
2016-05-26T08:00:44.183Z,1004.87
2016-05-26T08:01:44.216Z,1004.88
2016-05-26T08:02:44.267Z,1004.84
2016-05-26T08:03:44.894Z,1004.86
2016-05-26T08:04:44.288Z,1004.88
2016-05-26T08:05:44.322Z,1004.89
2016-05-26T08:06:44.341Z,1004.86
2016-05-26T08:07:44.374Z,1004.86
2016-05-26T08:08:44.407Z,1004.85
2016-05-26T08:09:44.427Z,1004.85
2016-05-26T08:10:44.446Z,1004.86
2016-05-26T08:11:44.479Z,1004.86
2016-05-26T08:12:44.497Z,1004.87
2016-05-26T08:13:44.531Z,1004.86
2016-05-26T08:14:44.549Z,1004.86
2016-05-26T08:15:44.584Z,1004.89
2016-05-26T08:16:44.602Z,1004.87
2016-05-26T08:17:44.635Z,1004.88
2016-05-26T08:18:44.669Z,1004.87
2016-05-26T08:19:44.688Z,1004.92
2016-05-26T08:20:44.706Z,1004.93
2016-05-26T08:21:44.740Z,1004.9
2016-05-26T08:22:44.773Z,1004.93
2016-05-26T08:23:44.776Z,1004.91
2016-05-26T08:24:44.811Z,1004.94
2016-05-26T08:25:44.844Z,1004.92
2016-05-26T08:26:44.863Z,1004.92
2016-05-26T08:27:44.881Z,1004.93
2016-05-26T08:28:44.914Z,1004.92
2016-05-26T08:29:44.933Z,1004.92
2016-05-26T08:30:44.967Z,1004.9
2016-05-26T08:31:44.985Z,1004.91
2016-05-26T08:32:45.019Z,1004.91
2016-05-26T08:33:45.054Z,1004.9
2016-05-26T08:34:45.071Z,1004.93
2016-05-26T08:35:45.105Z,1004.91
2016-05-26T08:36:45.124Z,1004.9
2016-05-26T08:37:45.158Z,1004.92
2016-05-26T08:38:45.177Z,1004.91
2016-05-26T08:39:45.211Z,1004.94
2016-05-26T08:40:45.228Z,1004.92
2016-05-26T08:41:45.263Z,1004.95
2016-05-26T08:42:45.297Z,1004.92
2016-05-26T08:43:45.315Z,1004.9
2016-05-26T08:44:45.333Z,1004.91
2016-05-26T08:45:45.367Z,1004.9
2016-05-26T08:46:45.385Z,1004.92
2016-05-26T08:47:45.513Z,1004.92
2016-05-26T08:48:45.454Z,1004.93
2016-05-26T08:49:45.471Z,1004.92
2016-05-26T08:50:45.553Z,1004.99
2016-05-26T08:51:45.524Z,1005
2016-05-26T08:52:45.558Z,1005.03
2016-05-26T08:53:45.576Z,1005.02
2016-05-26T08:54:45.625Z,1005
2016-05-26T08:55:45.644Z,1005.01
2016-05-26T08:56:45.662Z,1004.98
2016-05-26T08:57:45.681Z,1004.96
2016-05-26T08:58:45.714Z,1004.95
2016-05-26T08:59:45.733Z,1004.96
2016-05-26T09:00:45.767Z,1004.97
2016-05-26T09:01:45.800Z,1004.93
2016-05-26T09:02:45.819Z,1004.95
2016-05-26T09:03:45.853Z,1004.94
2016-05-26T09:04:45.871Z,1004.91
2016-05-26T09:05:45.905Z,1004.97
2016-05-26T09:06:45.939Z,1004.99
2016-05-26T09:07:45.957Z,1004.97
2016-05-26T09:08:45.991Z,1004.95
2016-05-26T09:09:46.010Z,1004.96
2016-05-26T09:10:46.043Z,1004.94
2016-05-26T09:11:46.062Z,1004.98
2016-05-26T09:12:46.112Z,1004.97
2016-05-26T09:13:46.129Z,1004.99
2016-05-26T09:14:46.148Z,1004.99
2016-05-26T09:15:46.182Z,1005
2016-05-26T09:16:46.201Z,1004.98
2016-05-26T09:17:46.234Z,1004.97
2016-05-26T09:18:46.268Z,1004.97
2016-05-26T09:19:46.287Z,1004.98
2016-05-26T09:20:46.320Z,1004.97
2016-05-26T09:21:46.354Z,1005
2016-05-26T09:22:46.373Z,1005.06
2016-05-26T09:23:46.407Z,1005.06
2016-05-26T09:24:46.504Z,1005.04
2016-05-26T09:25:46.458Z,1005.02
2016-05-26T09:26:46.493Z,1005.06
2016-05-26T09:27:46.511Z,1005.05
2016-05-26T09:28:46.545Z,1005.08
2016-05-26T09:29:46.579Z,1005.07
2016-05-26T09:30:46.598Z,1005.06
2016-05-26T09:31:46.631Z,1005.07
2016-05-26T09:32:46.650Z,1005.06
2016-05-26T09:33:46.809Z,1005.05
2016-05-26T09:34:46.717Z,1005.05
2016-05-26T09:35:46.752Z,1005.03
2016-05-26T09:36:46.769Z,1005.05
2016-05-26T09:37:46.804Z,1005.03
2016-05-26T09:38:46.822Z,1005.04
2016-05-26T09:39:46.856Z,1005.03
2016-05-26T09:40:46.874Z,1005.04
2016-05-26T09:41:46.908Z,1005.02
2016-05-26T09:42:46.943Z,1005.06
2016-05-26T09:43:46.976Z,1005.06
2016-05-26T09:44:46.994Z,1005.05
2016-05-26T09:45:47.029Z,1005.04
2016-05-26T09:46:47.063Z,1005.03
2016-05-26T09:47:47.081Z,1005.06
2016-05-26T09:48:47.115Z,1005.05
2016-05-26T09:49:47.133Z,1005.09
2016-05-26T09:50:47.167Z,1005.05
2016-05-26T09:51:47.201Z,1005.05
2016-05-26T09:52:47.234Z,1005.05
2016-05-26T09:53:47.254Z,1005.02
2016-05-26T09:54:47.287Z,1004.96
2016-05-26T09:55:47.321Z,1004.96
2016-05-26T09:56:47.339Z,1004.95
2016-05-26T09:57:47.373Z,1004.94
2016-05-26T09:58:47.407Z,1004.98
2016-05-26T09:59:47.442Z,1004.96
2016-05-26T10:00:47.459Z,1004.98
2016-05-26T10:01:47.494Z,1004.97
2016-05-26T10:02:47.511Z,1004.92
2016-05-26T10:03:47.545Z,1004.95
2016-05-26T10:04:47.580Z,1004.98
2016-05-26T10:05:47.598Z,1004.98
2016-05-26T10:06:47.632Z,1004.95
2016-05-26T10:07:47.666Z,1004.94
2016-05-26T10:08:47.700Z,1004.95
2016-05-26T10:09:47.718Z,1004.99
2016-05-26T10:10:47.752Z,1004.98
2016-05-26T10:11:47.786Z,1005
2016-05-26T10:12:47.805Z,1005.02
2016-05-26T10:13:47.854Z,1005.01
2016-05-26T10:14:47.872Z,1004.97
2016-05-26T10:15:47.907Z,1005.01
2016-05-26T10:16:47.924Z,1005
2016-05-26T10:17:47.957Z,1005.02
2016-05-26T10:18:47.977Z,1004.94
2016-05-26T10:19:48.010Z,1004.94
2016-05-26T10:20:48.045Z,1004.95
2016-05-26T10:21:48.078Z,1004.93
2016-05-26T10:22:48.096Z,1004.91
2016-05-26T10:23:48.131Z,1004.95
2016-05-26T10:24:48.165Z,1004.91
2016-05-26T10:25:48.198Z,1004.93
2016-05-26T10:26:48.217Z,1004.93
2016-05-26T10:27:48.251Z,1004.93
2016-05-26T10:28:48.285Z,1004.93
2016-05-26T10:29:48.303Z,1004.96
2016-05-26T10:30:48.447Z,1004.91
2016-05-26T10:31:48.370Z,1004.93
2016-05-26T10:32:48.389Z,1004.87
2016-05-26T10:33:48.423Z,1004.87
2016-05-26T10:34:48.457Z,1004.89
2016-05-26T10:35:48.491Z,1004.91
2016-05-26T10:36:48.508Z,1004.9
2016-05-26T10:37:48.544Z,1004.92
2016-05-26T10:38:48.577Z,1004.93
2016-05-26T10:39:48.611Z,1004.94
2016-05-26T10:40:48.630Z,1004.94
2016-05-26T10:41:48.663Z,1004.98
2016-05-26T10:42:48.697Z,1004.93
2016-05-26T10:43:48.809Z,1004.92
2016-05-26T10:44:48.749Z,1004.92
2016-05-26T10:45:48.800Z,1004.95
2016-05-26T10:46:48.818Z,1004.95
2016-05-26T10:47:48.852Z,1004.93
2016-05-26T10:48:49.135Z,1004.97
2016-05-26T10:49:48.904Z,1005
2016-05-26T10:50:48.937Z,1004.99
2016-05-26T10:51:48.972Z,1004.99
2016-05-26T10:52:49.006Z,1004.97
2016-05-26T10:53:49.024Z,1004.96
2016-05-26T10:54:49.057Z,1004.96
2016-05-26T10:55:49.185Z,1004.95
2016-05-26T10:56:49.109Z,1004.98
2016-05-26T10:57:49.144Z,1004.94
2016-05-26T10:58:49.178Z,1004.98
2016-05-26T10:59:49.212Z,1004.97
2016-05-26T11:00:49.245Z,1004.96
2016-05-26T11:01:49.311Z,1004.95
2016-05-26T11:02:49.298Z,1004.95
2016-05-26T11:03:49.331Z,1004.99
2016-05-26T11:04:49.366Z,1004.99
2016-05-26T11:05:49.400Z,1004.97
2016-05-26T11:06:49.419Z,1004.97
2016-05-26T11:07:49.452Z,1004.93
2016-05-26T11:08:49.486Z,1005
2016-05-26T11:09:49.520Z,1005
2016-05-26T11:10:49.554Z,1005.04
2016-05-26T11:11:49.588Z,1005.06
2016-05-26T11:12:49.606Z,1004.99
2016-05-26T11:13:49.640Z,1005.04
2016-05-26T11:14:49.674Z,1004.99
2016-05-26T11:15:49.707Z,1005.02
2016-05-26T11:16:49.741Z,1005.03
2016-05-26T11:17:49.776Z,1005.01
2016-05-26T11:18:49.810Z,1005
2016-05-26T11:19:49.829Z,1004.96
2016-05-26T11:20:49.862Z,1004.97
2016-05-26T11:21:49.896Z,1005
2016-05-26T11:22:49.930Z,1004.99
2016-05-26T11:23:49.948Z,1004.96
2016-05-26T11:24:49.982Z,1004.98
2016-05-26T11:25:50.016Z,1005
2016-05-26T11:26:50.050Z,1005.01
2016-05-26T11:27:50.084Z,1004.99
2016-05-26T11:28:50.117Z,1004.99
2016-05-26T11:29:50.137Z,1005.02
2016-05-26T11:30:50.170Z,1004.96
2016-05-26T11:31:50.204Z,1005
2016-05-26T11:32:50.238Z,1005
2016-05-26T11:33:50.272Z,1004.97
2016-05-26T11:34:50.306Z,1004.98
2016-05-26T11:35:50.325Z,1004.97
2016-05-26T11:36:50.358Z,1004.98
2016-05-26T11:37:50.392Z,1005.02
2016-05-26T11:38:50.426Z,1005.01
2016-05-26T11:39:50.460Z,1005.03
2016-05-26T11:40:50.494Z,1005.04
2016-05-26T11:41:50.528Z,1004.99
2016-05-26T11:42:50.562Z,1004.99
2016-05-26T11:43:50.580Z,1005
2016-05-26T11:44:50.614Z,1005
2016-05-26T11:45:50.648Z,1005
2016-05-26T11:46:50.682Z,1005
2016-05-26T11:47:50.716Z,1004.99
2016-05-26T11:48:50.750Z,1005.02
2016-05-26T11:49:50.768Z,1005.01
2016-05-26T11:50:50.802Z,1005.02
2016-05-26T11:51:50.836Z,1004.98
2016-05-26T11:52:50.871Z,1005.01
2016-05-26T11:53:50.904Z,1004.99
2016-05-26T11:54:50.938Z,1004.98
2016-05-26T11:55:50.971Z,1004.95
2016-05-26T11:56:51.007Z,1004.99
2016-05-26T11:57:51.040Z,1004.99
2016-05-26T11:58:51.058Z,1004.99
2016-05-26T11:59:51.093Z,1004.98
2016-05-26T12:00:51.142Z,1004.97
2016-05-26T12:01:51.159Z,1004.98
2016-05-26T12:02:51.194Z,1005.03
2016-05-26T12:03:51.228Z,1004.99
2016-05-26T12:04:51.262Z,1005.04
2016-05-26T12:05:51.280Z,1005.02
2016-05-26T12:06:51.314Z,1005.07
2016-05-26T12:07:51.348Z,1005.08
2016-05-26T12:08:51.381Z,1005.08
2016-05-26T12:09:51.417Z,1005.04